Time;durP1;ratioP1;P1;durP2;ratioP2;P2;SDS_P1;SDS_P2;PMS_P1;PMS_P2;Temp;Humidity;BMP_temperature;BMP_pressure;BME280_temperature;BME280_humidity;BME280_pressure;Samples;Min_cycle;Max_cycle;Signal;HPM_P1;HPM_P2
2022/10/16 00:00:35;;;;;;;7.50;2.55;;;;;;;;;;4954040;28;20047;-76
2022/10/16 00:03:02;;;;;;;13.98;2.78;;;;;;;;;;4952605;29;20054;-76
2022/10/16 00:05:28;;;;;;;5.70;2.63;;;;;;;;;;4954252;29;20130;-76
2022/10/16 00:07:54;;;;;;;6.28;2.30;;;;;;;;;;4954057;29;20090;-77
2022/10/16 00:10:20;;;;;;;5.40;2.63;;;;;;;;;;4954029;29;20071;-76
2022/10/16 00:12:46;;;;;;;8.07;2.60;;;;;;;;;;4953263;28;20058;-76
2022/10/16 00:15:12;;;;;;;8.30;2.35;;;;;;;;;;4954102;28;20075;-77
2022/10/16 00:17:38;;;;;;;7.40;2.35;;;;;;;;;;4954450;29;20039;-76
2022/10/16 00:20:05;;;;;;;7.47;2.60;;;;;;;;;;4952891;29;20104;-76
2022/10/16 00:22:31;;;;;;;5.57;2.10;;;;;;;;;;4955363;28;20073;-77
2022/10/16 00:24:57;;;;;;;6.90;2.50;;;;;;;;;;4972531;28;20078;-76
2022/10/16 00:27:23;;;;;;;5.40;2.40;;;;;;;;;;4972687;28;20485;-76
2022/10/16 00:29:52;;;;;;;5.82;2.72;;;;;;;;;;4972966;28;20402;-76
2022/10/16 00:32:19;;;;;;;7.55;2.10;;;;;;;;;;4972397;28;20121;-76
2022/10/16 00:34:45;;;;;;;8.98;3.22;;;;;;;;;;4953284;29;20388;-77
2022/10/16 00:37:11;;;;;;;6.50;2.20;;;;;;;;;;4953537;28;20181;-76
2022/10/16 00:39:37;;;;;;;7.50;2.35;;;;;;;;;;4953707;28;20047;-76
2022/10/16 00:42:03;;;;;;;5.40;2.03;;;;;;;;;;4953570;28;20050;-77
2022/10/16 00:44:44;;;;;;;9.02;2.35;;;;;;;;;;4971233;28;20122;-76
2022/10/16 00:47:12;;;;;;;6.30;2.65;;;;;;;;;;4972720;28;20054;-77
2022/10/16 00:49:38;;;;;;;4.72;2.20;;;;;;;;;;4954592;28;20070;-76
2022/10/16 00:52:05;;;;;;;8.20;2.90;;;;;;;;;;4953416;29;20097;-76
2022/10/16 00:54:32;;;;;;;6.63;2.42;;;;;;;;;;4953092;29;20444;-76
2022/10/16 00:57:00;;;;;;;6.03;2.08;;;;;;;;;;4954555;28;20405;-76
2022/10/16 00:59:31;;;;;;;7.13;2.47;;;;;;;;;;4953916;28;20039;-76
2022/10/16 01:01:58;;;;;;;5.47;2.28;;;;;;;;;;4953502;28;20054;-76
2022/10/16 01:04:25;;;;;;;6.05;2.20;;;;;;;;;;4953251;28;20079;-77
2022/10/16 01:07:09;;;;;;;8.13;2.22;;;;;;;;;;4953161;28;20055;-77
2022/10/16 01:09:52;;;;;;;5.93;2.30;;;;;;;;;;4953074;29;20051;-76
2022/10/16 01:12:37;;;;;;;6.68;2.10;;;;;;;;;;4952884;29;20457;-76
2022/10/16 01:15:03;;;;;;;4.15;2.10;;;;;;;;;;4952864;28;20544;-76
2022/10/16 01:17:35;;;;;;;3.03;2.03;;;;;;;;;;4953030;28;20048;-76
2022/10/16 01:20:05;;;;;;;4.40;1.90;;;;;;;;;;4952991;28;20055;-76
2022/10/16 01:22:36;;;;;;;8.70;2.10;;;;;;;;;;4954627;28;20055;-76
2022/10/16 01:25:05;;;;;;;3.97;2.53;;;;;;;;;;4971767;28;20059;-76
2022/10/16 01:27:35;;;;;;;4.50;2.10;;;;;;;;;;4972128;28;20054;-77
2022/10/16 01:30:27;;;;;;;6.25;2.20;;;;;;;;;;4972100;28;20043;-76
2022/10/16 01:33:16;;;;;;;6.13;2.50;;;;;;;;;;4970258;28;20105;-77
2022/10/16 01:35:43;;;;;;;5.32;1.85;;;;;;;;;;4952507;28;20138;-76
2022/10/16 01:38:28;;;;;;;3.67;1.88;;;;;;;;;;4952721;28;20097;-77
2022/10/16 01:40:58;;;;;;;4.07;2.08;;;;;;;;;;4952762;28;20043;-76
2022/10/16 01:43:39;;;;;;;5.35;2.20;;;;;;;;;;4958844;28;20117;-76
2022/10/16 01:46:05;;;;;;;5.15;1.90;;;;;;;;;;4970846;28;20046;-77
2022/10/16 01:48:32;;;;;;;3.40;1.90;;;;;;;;;;4972075;28;20078;-77
2022/10/16 01:51:01;;;;;;;5.47;2.10;;;;;;;;;;4962411;28;20074;-77
2022/10/16 01:53:27;;;;;;;7.70;2.03;;;;;;;;;;4952889;29;20043;-76
2022/10/16 01:55:56;;;;;;;5.20;2.45;;;;;;;;;;4952628;28;20078;-77
2022/10/16 01:58:22;;;;;;;5.22;2.20;;;;;;;;;;4952244;29;20043;-77
2022/10/16 02:00:49;;;;;;;5.28;2.15;;;;;;;;;;4952194;28;20549;-76
2022/10/16 02:03:16;;;;;;;4.70;1.90;;;;;;;;;;4957830;28;20043;-77
2022/10/16 02:05:45;;;;;;;5.13;2.08;;;;;;;;;;4962376;28;20101;-77
2022/10/16 02:08:11;;;;;;;6.90;2.10;;;;;;;;;;4952704;28;20131;-77
2022/10/16 02:10:38;;;;;;;6.50;2.53;;;;;;;;;;4952101;29;20121;-77
2022/10/16 02:13:06;;;;;;;6.18;2.15;;;;;;;;;;4952495;29;20043;-76
2022/10/16 02:15:32;;;;;;;5.43;1.98;;;;;;;;;;4953151;29;20123;-77
2022/10/16 02:17:58;;;;;;;5.75;1.85;;;;;;;;;;4952707;29;20054;-77
2022/10/16 02:20:27;;;;;;;11.38;2.53;;;;;;;;;;4952597;29;20101;-77
2022/10/16 02:22:54;;;;;;;5.25;2.00;;;;;;;;;;4967896;28;20038;-76
2022/10/16 02:25:26;;;;;;;6.38;2.10;;;;;;;;;;4971133;28;20051;-77
2022/10/16 02:27:52;;;;;;;5.75;2.45;;;;;;;;;;4971519;28;20051;-77
2022/10/16 02:30:25;;;;;;;5.68;2.55;;;;;;;;;;4971803;28;20051;-77
2022/10/16 02:32:52;;;;;;;5.90;2.25;;;;;;;;;;4970727;28;20043;-77
2022/10/16 02:35:19;;;;;;;4.43;2.20;;;;;;;;;;4976154;28;20176;-75
2022/10/16 02:37:46;;;;;;;5.28;2.55;;;;;;;;;;4967805;28;20075;-76
2022/10/16 02:40:13;;;;;;;3.97;2.20;;;;;;;;;;4962918;28;20047;-76
2022/10/16 02:42:40;;;;;;;6.30;2.80;;;;;;;;;;4958873;28;20055;-76
2022/10/16 02:45:06;;;;;;;6.00;2.50;;;;;;;;;;4955689;28;20079;-76
2022/10/16 02:47:33;;;;;;;7.38;2.80;;;;;;;;;;4955396;28;20047;-76
2022/10/16 02:49:59;;;;;;;7.30;3.00;;;;;;;;;;4955754;28;20540;-77
2022/10/16 02:52:25;;;;;;;5.20;2.70;;;;;;;;;;4972087;28;20049;-77
2022/10/16 02:54:51;;;;;;;4.82;2.55;;;;;;;;;;4974460;28;20090;-77
2022/10/16 02:57:18;;;;;;;6.43;3.05;;;;;;;;;;4974767;28;20089;-76
2022/10/16 02:59:44;;;;;;;5.13;2.92;;;;;;;;;;4975153;28;20057;-77
2022/10/16 03:02:10;;;;;;;5.20;2.85;;;;;;;;;;4975784;28;20043;-77
2022/10/16 03:04:37;;;;;;;5.65;2.88;;;;;;;;;;4960833;28;20383;-77
2022/10/16 03:07:03;;;;;;;5.78;3.40;;;;;;;;;;4973289;28;20050;-77
2022/10/16 03:09:29;;;;;;;5.57;3.10;;;;;;;;;;4974085;28;20050;-77
2022/10/16 03:11:55;;;;;;;4.72;2.95;;;;;;;;;;4974408;28;20394;-77
2022/10/16 03:14:21;;;;;;;5.22;3.20;;;;;;;;;;4974145;28;20504;-77
2022/10/16 03:16:47;;;;;;;6.60;2.95;;;;;;;;;;4973819;28;20552;-77
2022/10/16 03:19:13;;;;;;;5.13;2.65;;;;;;;;;;4974163;28;20047;-77
2022/10/16 03:21:39;;;;;;;4.75;2.80;;;;;;;;;;4959998;28;20047;-77
2022/10/16 03:24:05;;;;;;;5.18;2.72;;;;;;;;;;4963994;28;20367;-77
2022/10/16 03:26:31;;;;;;;6.80;2.90;;;;;;;;;;4974421;28;20046;-77
2022/10/16 03:28:58;;;;;;;8.25;2.97;;;;;;;;;;4974371;28;20053;-77
2022/10/16 03:31:24;;;;;;;5.45;3.15;;;;;;;;;;4973918;28;20054;-77
2022/10/16 03:33:50;;;;;;;4.13;2.65;;;;;;;;;;4973945;28;20047;-77
2022/10/16 03:36:16;;;;;;;4.95;2.95;;;;;;;;;;4973908;28;20043;-77
2022/10/16 03:38:42;;;;;;;4.75;2.90;;;;;;;;;;4973946;28;20100;-77
2022/10/16 03:41:08;;;;;;;9.70;3.00;;;;;;;;;;4972327;28;20133;-77
2022/10/16 03:43:34;;;;;;;5.43;2.80;;;;;;;;;;4969614;28;20048;-77
2022/10/16 03:46:00;;;;;;;4.60;2.47;;;;;;;;;;4964722;28;20566;-77
2022/10/16 03:48:26;;;;;;;5.00;2.90;;;;;;;;;;4972754;28;20051;-77
2022/10/16 03:50:52;;;;;;;7.15;2.80;;;;;;;;;;4973639;28;20043;-77
2022/10/16 03:53:18;;;;;;;4.50;2.80;;;;;;;;;;4972059;28;20053;-77
2022/10/16 03:55:45;;;;;;;4.95;2.50;;;;;;;;;;4973445;28;20512;-77
2022/10/16 03:58:11;;;;;;;5.93;2.70;;;;;;;;;;4972073;28;20043;-77
2022/10/16 04:00:41;;;;;;;4.90;3.03;;;;;;;;;;4973481;28;20050;-77
2022/10/16 04:03:07;;;;;;;5.53;2.40;;;;;;;;;;4973804;28;20100;-77
2022/10/16 04:05:33;;;;;;;5.45;2.78;;;;;;;;;;4973385;28;20126;-77
2022/10/16 04:07:59;;;;;;;6.03;2.85;;;;;;;;;;4962348;28;20101;-77
2022/10/16 04:10:25;;;;;;;5.50;2.97;;;;;;;;;;4953719;28;20047;-77
2022/10/16 04:12:51;;;;;;;7.50;2.40;;;;;;;;;;4953879;28;20051;-77
2022/10/16 04:15:17;;;;;;;7.68;2.50;;;;;;;;;;4971737;28;20122;-77
2022/10/16 04:17:43;;;;;;;4.72;2.30;;;;;;;;;;4973084;28;20074;-77
2022/10/16 04:20:09;;;;;;;7.25;2.25;;;;;;;;;;4973211;28;20047;-77
2022/10/16 04:22:35;;;;;;;5.35;2.53;;;;;;;;;;4973045;28;20072;-77
2022/10/16 04:25:01;;;;;;;6.53;2.50;;;;;;;;;;4973279;28;20142;-77
2022/10/16 04:27:28;;;;;;;5.40;2.33;;;;;;;;;;4973022;28;20047;-77
2022/10/16 04:29:54;;;;;;;7.35;2.65;;;;;;;;;;4973116;28;20158;-77
2022/10/16 04:32:20;;;;;;;7.00;2.20;;;;;;;;;;4973027;28;20047;-77
2022/10/16 04:34:46;;;;;;;4.35;2.13;;;;;;;;;;4972956;28;20103;-77
2022/10/16 04:37:12;;;;;;;4.22;2.00;;;;;;;;;;4964371;28;20047;-77
2022/10/16 04:39:38;;;;;;;5.90;2.40;;;;;;;;;;4954584;28;20148;-77
2022/10/16 04:42:04;;;;;;;4.88;3.00;;;;;;;;;;4953622;28;20514;-77
2022/10/16 04:44:30;;;;;;;3.95;2.80;;;;;;;;;;4953666;28;20113;-76
2022/10/16 04:46:56;;;;;;;3.70;2.50;;;;;;;;;;4953589;28;20094;-77
2022/10/16 04:49:22;;;;;;;5.63;2.42;;;;;;;;;;4953718;28;20122;-77
2022/10/16 04:51:48;;;;;;;4.72;2.50;;;;;;;;;;4953410;28;20405;-77
2022/10/16 04:54:14;;;;;;;5.70;2.50;;;;;;;;;;4970811;28;20050;-77
2022/10/16 04:56:46;;;;;;;5.75;2.50;;;;;;;;;;4971763;28;20053;-77
2022/10/16 04:59:13;;;;;;;5.47;2.50;;;;;;;;;;4971992;28;20046;-77
2022/10/16 05:01:39;;;;;;;8.98;2.65;;;;;;;;;;4961366;28;20047;-77
2022/10/16 05:04:05;;;;;;;4.43;2.33;;;;;;;;;;4953329;29;20441;-77
2022/10/16 05:06:31;;;;;;;6.20;2.15;;;;;;;;;;4952844;29;20444;-77
2022/10/16 05:08:57;;;;;;;4.57;2.00;;;;;;;;;;4952778;29;20516;-77
2022/10/16 05:11:23;;;;;;;5.28;2.10;;;;;;;;;;4953191;28;20044;-77
2022/10/16 05:13:49;;;;;;;5.10;2.28;;;;;;;;;;4953094;28;20047;-77
2022/10/16 05:16:15;;;;;;;7.10;2.38;;;;;;;;;;4952746;28;20138;-77
2022/10/16 05:18:41;;;;;;;4.47;2.20;;;;;;;;;;4953084;28;20043;-77
2022/10/16 05:21:07;;;;;;;4.93;2.10;;;;;;;;;;4967573;28;20043;-77
2022/10/16 05:23:33;;;;;;;5.15;2.33;;;;;;;;;;4971771;28;20113;-77
2022/10/16 05:26:00;;;;;;;4.10;2.05;;;;;;;;;;4971764;28;20058;-77
2022/10/16 05:28:26;;;;;;;5.10;2.47;;;;;;;;;;4972273;28;20051;-76
2022/10/16 05:30:53;;;;;;;5.15;2.08;;;;;;;;;;4972716;28;20045;-77
2022/10/16 05:33:22;;;;;;;3.67;2.20;;;;;;;;;;4972066;28;20053;-77
2022/10/16 05:35:49;;;;;;;5.22;2.50;;;;;;;;;;4972026;28;20089;-77
2022/10/16 05:38:15;;;;;;;3.63;2.40;;;;;;;;;;4970550;28;20134;-77
2022/10/16 05:40:41;;;;;;;3.95;2.35;;;;;;;;;;4952873;28;20051;-77
2022/10/16 05:43:07;;;;;;;5.95;3.00;;;;;;;;;;4953757;29;20043;-77
2022/10/16 05:45:33;;;;;;;5.05;3.10;;;;;;;;;;4952481;29;20457;-77
2022/10/16 05:48:00;;;;;;;7.13;3.20;;;;;;;;;;4952926;29;20055;-77
2022/10/16 05:50:26;;;;;;;6.82;3.28;;;;;;;;;;4952561;29;20050;-76
2022/10/16 05:52:52;;;;;;;7.28;3.60;;;;;;;;;;4952446;29;20043;-77
2022/10/16 05:55:19;;;;;;;6.65;4.35;;;;;;;;;;4972061;28;20591;-76
2022/10/16 05:57:45;;;;;;;5.93;3.55;;;;;;;;;;4972833;28;20508;-77
2022/10/16 06:00:11;;;;;;;7.00;3.78;;;;;;;;;;4971603;28;20509;-77
2022/10/16 06:02:37;;;;;;;8.23;3.90;;;;;;;;;;4960889;28;20043;-77
2022/10/16 06:05:03;;;;;;;6.63;3.90;;;;;;;;;;4954375;28;20056;-76
2022/10/16 06:07:29;;;;;;;7.07;3.90;;;;;;;;;;4953047;28;20050;-77
2022/10/16 06:09:55;;;;;;;10.52;3.78;;;;;;;;;;4970520;28;20043;-77
2022/10/16 06:12:21;;;;;;;4.38;3.70;;;;;;;;;;4961050;28;20048;-77
2022/10/16 06:14:47;;;;;;;6.22;3.90;;;;;;;;;;4957564;28;20051;-76
2022/10/16 06:17:14;;;;;;;8.57;3.97;;;;;;;;;;4957157;28;20051;-77
2022/10/16 06:19:40;;;;;;;6.20;3.85;;;;;;;;;;4956365;28;20449;-77
2022/10/16 06:22:07;;;;;;;7.22;3.63;;;;;;;;;;4956557;28;20398;-77
2022/10/16 06:24:33;;;;;;;9.85;3.65;;;;;;;;;;4962455;28;20538;-77
2022/10/16 06:26:59;;;;;;;9.45;4.15;;;;;;;;;;4978404;28;20080;-81
2022/10/16 06:29:25;;;;;;;5.55;3.38;;;;;;;;;;4970048;28;20048;-77
2022/10/16 06:31:52;;;;;;;6.38;3.47;;;;;;;;;;4972284;28;20465;-76
2022/10/16 06:34:18;;;;;;;6.63;3.58;;;;;;;;;;4958767;29;20047;-77
2022/10/16 06:36:44;;;;;;;8.18;3.47;;;;;;;;;;4965084;28;20046;-77
2022/10/16 06:39:10;;;;;;;8.07;3.35;;;;;;;;;;4979123;28;20047;-77
2022/10/16 06:41:37;;;;;;;6.03;3.35;;;;;;;;;;4980112;28;20394;-77
2022/10/16 06:44:06;;;;;;;6.80;3.80;;;;;;;;;;4963705;28;20055;-77
2022/10/16 06:46:32;;;;;;;6.40;3.10;;;;;;;;;;4962471;28;20059;-77
2022/10/16 06:48:58;;;;;;;10.07;3.88;;;;;;;;;;4979315;28;20039;-76
2022/10/16 06:51:25;;;;;;;10.07;3.78;;;;;;;;;;4973918;28;20095;-77
2022/10/16 06:53:58;;;;;;;7.22;3.50;;;;;;;;;;4966095;28;20055;-80
2022/10/16 06:56:25;;;;;;;6.55;3.05;;;;;;;;;;4939232;29;20051;-79
2022/10/16 06:58:52;;;;;;;5.97;3.10;;;;;;;;;;4956855;28;20425;-78
2022/10/16 07:01:19;;;;;;;8.80;3.33;;;;;;;;;;4966322;28;20359;-76
2022/10/16 07:03:46;;;;;;;7.97;3.45;;;;;;;;;;4979612;28;20045;-77
2022/10/16 07:06:13;;;;;;;8.27;3.35;;;;;;;;;;4967155;28;20048;-77
2022/10/16 07:08:40;;;;;;;8.52;3.20;;;;;;;;;;4955095;28;20054;-78
2022/10/16 07:11:07;;;;;;;8.25;3.03;;;;;;;;;;4954803;28;20054;-78
2022/10/16 07:13:34;;;;;;;6.15;2.92;;;;;;;;;;4955305;28;20098;-78
2022/10/16 07:16:10;;;;;;;6.18;3.13;;;;;;;;;;4955365;29;20050;-78
2022/10/16 07:18:38;;;;;;;8.45;3.40;;;;;;;;;;4955347;29;20051;-78
2022/10/16 07:21:08;;;;;;;7.10;3.00;;;;;;;;;;4954751;29;20118;-78
2022/10/16 07:23:34;;;;;;;11.27;2.78;;;;;;;;;;4957927;28;20042;-78
2022/10/16 07:26:00;;;;;;;8.35;2.75;;;;;;;;;;4974669;28;20086;-77
2022/10/16 07:28:27;;;;;;;5.68;2.70;;;;;;;;;;4974128;28;20130;-78
2022/10/16 07:30:53;;;;;;;6.15;2.97;;;;;;;;;;4973993;28;20050;-78
2022/10/16 07:33:19;;;;;;;6.88;3.10;;;;;;;;;;4958433;28;20083;-79
2022/10/16 07:35:52;;;;;;;5.43;3.03;;;;;;;;;;4957897;29;20050;-77
2022/10/16 07:38:18;;;;;;;6.05;2.90;;;;;;;;;;4957366;28;20051;-78
2022/10/16 07:40:45;;;;;;;4.85;2.72;;;;;;;;;;4955876;29;20051;-77
2022/10/16 07:43:11;;;;;;;5.72;2.97;;;;;;;;;;4956889;28;20126;-77
2022/10/16 07:45:37;;;;;;;8.85;3.08;;;;;;;;;;4954844;28;20071;-76
2022/10/16 07:48:03;;;;;;;3.90;2.78;;;;;;;;;;4955066;28;20043;-77
2022/10/16 07:50:29;;;;;;;6.07;2.83;;;;;;;;;;4954589;28;20051;-77
2022/10/16 07:52:55;;;;;;;8.68;3.47;;;;;;;;;;4954472;28;20057;-76
2022/10/16 07:55:21;;;;;;;5.40;3.10;;;;;;;;;;4954150;28;20506;-76
2022/10/16 07:57:47;;;;;;;5.22;3.40;;;;;;;;;;4954303;28;20161;-77
2022/10/16 08:00:14;;;;;;;6.55;3.50;;;;;;;;;;4954108;28;20101;-77
2022/10/16 08:02:40;;;;;;;6.00;3.60;;;;;;;;;;4965648;28;20059;-77
2022/10/16 08:05:07;;;;;;;8.82;3.67;;;;;;;;;;4973655;28;20049;-77
2022/10/16 08:07:33;;;;;;;7.60;4.05;;;;;;;;;;4955963;28;20467;-77
2022/10/16 08:10:00;;;;;;;7.47;4.28;;;;;;;;;;4972366;28;20089;-76
2022/10/16 08:12:26;;;;;;;8.82;4.50;;;;;;;;;;4964248;28;20466;-76
2022/10/16 08:14:52;;;;;;;9.25;4.80;;;;;;;;;;4954375;28;20039;-76
2022/10/16 08:17:18;;;;;;;7.40;4.35;;;;;;;;;;4954088;28;20054;-77
2022/10/16 08:19:45;;;;;;;6.30;4.70;;;;;;;;;;4953980;28;20040;-77
2022/10/16 08:22:11;;;;;;;9.10;4.35;;;;;;;;;;4954432;28;20043;-77
2022/10/16 08:24:37;;;;;;;9.10;4.28;;;;;;;;;;4973151;28;20057;-77
2022/10/16 08:27:03;;;;;;;7.35;3.65;;;;;;;;;;4973911;28;20054;-77
2022/10/16 08:29:30;;;;;;;6.35;3.40;;;;;;;;;;4971798;28;20047;-76
2022/10/16 08:31:56;;;;;;;7.95;3.85;;;;;;;;;;4970197;28;20110;-77
2022/10/16 08:34:22;;;;;;;7.82;4.05;;;;;;;;;;4953668;29;20047;-77
2022/10/16 08:36:48;;;;;;;8.23;5.20;;;;;;;;;;4954292;29;20069;-77
2022/10/16 08:39:14;;;;;;;9.73;5.15;;;;;;;;;;4971777;28;20051;-77
2022/10/16 08:41:40;;;;;;;7.50;2.75;;;;;;;;;;4971769;28;20076;-76
2022/10/16 08:44:06;;;;;;;9.65;5.63;;;;;;;;;;4952390;28;20490;-77
2022/10/16 08:46:32;;;;;;;8.82;3.85;;;;;;;;;;4954065;28;20047;-76
2022/10/16 08:48:59;;;;;;;7.88;3.53;;;;;;;;;;4954161;28;20097;-77
2022/10/16 08:51:32;;;;;;;6.30;3.25;;;;;;;;;;4953955;28;20043;-77
2022/10/16 08:53:59;;;;;;;5.97;3.20;;;;;;;;;;4987537;28;20048;-77
2022/10/16 08:56:26;;;;;;;6.88;3.15;;;;;;;;;;4973541;28;20043;-77
2022/10/16 08:58:52;;;;;;;7.93;2.92;;;;;;;;;;4973068;28;20513;-77
2022/10/16 09:01:19;;;;;;;11.10;3.47;;;;;;;;;;4973468;28;20051;-77
2022/10/16 09:03:55;;;;;;;6.78;3.70;;;;;;;;;;4973148;28;20043;-77
2022/10/16 09:06:33;;;;;;;9.45;3.83;;;;;;;;;;4973696;28;20076;-76
2022/10/16 09:09:08;;;;;;;7.10;2.90;;;;;;;;;;4953986;28;20055;-76
2022/10/16 09:11:43;;;;;;;9.65;3.25;;;;;;;;;;4952516;29;20509;-77
2022/10/16 09:14:25;;;;;;;7.33;3.33;;;;;;;;;;4953698;29;20043;-77
2022/10/16 09:16:57;;;;;;;8.18;2.70;;;;;;;;;;4953309;28;20524;-76
2022/10/16 09:19:26;;;;;;;10.13;3.40;;;;;;;;;;4952310;28;20126;-76
2022/10/16 09:21:53;;;;;;;8.10;3.67;;;;;;;;;;4959672;28;20057;-76
2022/10/16 09:24:20;;;;;;;10.75;6.07;;;;;;;;;;4975105;28;20077;-76
2022/10/16 09:26:47;;;;;;;10.35;3.03;;;;;;;;;;4961706;28;20051;-77
2022/10/16 09:29:13;;;;;;;10.50;3.33;;;;;;;;;;4973796;28;20145;-77
2022/10/16 09:31:39;;;;;;;12.18;3.67;;;;;;;;;;4962053;28;20048;-77
2022/10/16 09:34:08;;;;;;;9.18;2.92;;;;;;;;;;4964512;28;20039;-77
2022/10/16 09:36:43;;;;;;;8.63;2.70;;;;;;;;;;4968208;28;20051;-77
2022/10/16 09:39:11;;;;;;;11.98;3.33;;;;;;;;;;4956759;28;20058;-77
2022/10/16 09:41:39;;;;;;;8.88;3.17;;;;;;;;;;5034455;28;20518;-77
2022/10/16 09:44:07;;;;;;;11.35;2.75;;;;;;;;;;5042245;28;20068;-76
2022/10/16 09:46:34;;;;;;;8.57;3.25;;;;;;;;;;4977369;28;20051;-75
2022/10/16 09:49:01;;;;;;;9.27;2.42;;;;;;;;;;4971336;28;20133;-76
2022/10/16 09:51:37;;;;;;;11.23;2.80;;;;;;;;;;4979545;28;20046;-76
2022/10/16 09:54:06;;;;;;;6.50;2.70;;;;;;;;;;4963308;28;20486;-75
2022/10/16 09:56:35;;;;;;;11.38;3.20;;;;;;;;;;4962899;29;20039;-75
2022/10/16 09:59:03;;;;;;;8.88;3.15;;;;;;;;;;4967384;28;20051;-76
2022/10/16 10:01:40;;;;;;;11.27;3.33;;;;;;;;;;4978418;28;20046;-76
2022/10/16 10:04:07;;;;;;;10.55;3.42;;;;;;;;;;4972834;28;20126;-77
2022/10/16 10:06:42;;;;;;;12.98;4.18;;;;;;;;;;4980883;28;20100;-77
2022/10/16 10:09:18;;;;;;;12.20;4.28;;;;;;;;;;4978321;28;20557;-77
2022/10/16 10:11:49;;;;;;;9.88;3.03;;;;;;;;;;4969499;28;20069;-77
2022/10/16 10:14:21;;;;;;;16.92;5.07;;;;;;;;;;4963753;28;20047;-77
2022/10/16 10:16:48;;;;;;;16.88;3.28;;;;;;;;;;5001284;28;20034;-77
2022/10/16 10:19:18;;;;;;;8.98;2.70;;;;;;;;;;5061299;28;20036;-77
2022/10/16 10:21:44;;;;;;;11.00;2.80;;;;;;;;;;4988552;28;20058;-76
2022/10/16 10:24:11;;;;;;;11.63;3.08;;;;;;;;;;4970576;28;20525;-77
2022/10/16 10:26:38;;;;;;;11.20;3.72;;;;;;;;;;4970696;28;20042;-77
2022/10/16 10:29:04;;;;;;;12.57;3.13;;;;;;;;;;4986203;28;20413;-76
2022/10/16 10:31:43;;;;;;;9.82;3.00;;;;;;;;;;4969174;28;20103;-76
2022/10/16 10:34:28;;;;;;;12.60;3.58;;;;;;;;;;4963967;28;20039;-77
2022/10/16 10:36:59;;;;;;;15.18;2.97;;;;;;;;;;4945659;29;20057;-76
2022/10/16 10:39:31;;;;;;;9.82;2.90;;;;;;;;;;4958174;28;20043;-77
2022/10/16 10:42:03;;;;;;;9.82;2.75;;;;;;;;;;4961559;28;20050;-76
2022/10/16 10:44:39;;;;;;;12.98;2.80;;;;;;;;;;4962855;28;20048;-76
2022/10/16 10:47:08;;;;;;;10.63;3.15;;;;;;;;;;4962840;28;20122;-77
2022/10/16 10:49:36;;;;;;;10.93;2.85;;;;;;;;;;4981031;28;20106;-76
2022/10/16 10:52:33;;;;;;;12.07;3.58;;;;;;;;;;4976277;28;20563;-78
2022/10/16 10:54:59;;;;;;;9.20;2.92;;;;;;;;;;4957854;28;20099;-76
2022/10/16 10:57:43;;;;;;;13.00;2.95;;;;;;;;;;4963504;28;20502;-77
2022/10/16 11:00:28;;;;;;;11.63;2.88;;;;;;;;;;4965452;28;20453;-76
2022/10/16 11:03:09;;;;;;;8.68;2.67;;;;;;;;;;4976105;28;20049;-77
2022/10/16 11:05:44;;;;;;;12.27;3.50;;;;;;;;;;4972641;28;20134;-76
2022/10/16 11:08:14;;;;;;;8.55;3.08;;;;;;;;;;4961421;29;20047;-76
2022/10/16 11:10:42;;;;;;;9.80;2.85;;;;;;;;;;4965872;28;20043;-77
2022/10/16 11:13:19;;;;;;;12.02;2.85;;;;;;;;;;4971826;28;20047;-76
2022/10/16 11:15:49;;;;;;;8.85;2.60;;;;;;;;;;4964559;28;20039;-76
2022/10/16 11:18:33;;;;;;;11.65;2.85;;;;;;;;;;4968317;28;20043;-77
2022/10/16 11:21:03;;;;;;;7.82;2.63;;;;;;;;;;4966818;29;20389;-77
2022/10/16 11:23:31;;;;;;;10.98;2.50;;;;;;;;;;4965057;28;20047;-77
2022/10/16 11:26:00;;;;;;;6.88;2.60;;;;;;;;;;4971307;28;20055;-77
2022/10/16 11:28:32;;;;;;;8.60;2.45;;;;;;;;;;4985125;28;20039;-77
2022/10/16 11:31:00;;;;;;;8.75;2.10;;;;;;;;;;5011147;28;20037;-76
2022/10/16 11:33:45;;;;;;;16.60;3.30;;;;;;;;;;5031640;28;20047;-77
2022/10/16 11:36:23;;;;;;;15.10;2.40;;;;;;;;;;4988831;28;20068;-77
2022/10/16 11:38:54;;;;;;;10.60;3.17;;;;;;;;;;5014338;28;20043;-77
2022/10/16 11:41:29;;;;;;;10.93;2.60;;;;;;;;;;4976914;28;20103;-77
2022/10/16 11:44:19;;;;;;;9.73;2.75;;;;;;;;;;4969980;28;20058;-77
2022/10/16 11:47:14;;;;;;;9.43;2.85;;;;;;;;;;4961600;28;20074;-77
2022/10/16 11:49:40;;;;;;;11.13;3.92;;;;;;;;;;4955481;28;20051;-77
2022/10/16 11:52:06;;;;;;;11.23;2.85;;;;;;;;;;4969151;28;20043;-77
2022/10/16 11:54:41;;;;;;;11.48;3.35;;;;;;;;;;4973174;28;20584;-77
2022/10/16 11:57:17;;;;;;;10.40;3.30;;;;;;;;;;4969888;28;20039;-77
2022/10/16 11:59:48;;;;;;;7.53;2.30;;;;;;;;;;4969422;28;20081;-77
2022/10/16 12:02:27;;;;;;;12.00;4.30;;;;;;;;;;4985692;28;20498;-77
2022/10/16 12:05:02;;;;;;;10.00;2.78;;;;;;;;;;4985049;28;20050;-77
2022/10/16 12:07:33;;;;;;;10.77;3.30;;;;;;;;;;4983561;28;20103;-78
2022/10/16 12:10:10;;;;;;;7.72;2.42;;;;;;;;;;4979536;28;20489;-77
2022/10/16 12:12:36;;;;;;;14.05;3.03;;;;;;;;;;4965748;28;20050;-77
2022/10/16 12:15:04;;;;;;;10.25;2.70;;;;;;;;;;4965834;28;20043;-77
2022/10/16 12:17:37;;;;;;;10.38;3.15;;;;;;;;;;4979712;28;20073;-77
2022/10/16 12:20:13;;;;;;;12.88;3.13;;;;;;;;;;4974516;28;20071;-77
2022/10/16 12:22:48;;;;;;;14.25;3.08;;;;;;;;;;4980205;28;20073;-77
2022/10/16 12:25:47;;;;;;;7.35;2.63;;;;;;;;;;4970242;28;20111;-77
2022/10/16 12:28:13;;;;;;;7.55;2.47;;;;;;;;;;4957062;28;20083;-77
2022/10/16 12:30:40;;;;;;;10.68;2.53;;;;;;;;;;4980452;28;20043;-77
2022/10/16 12:33:16;;;;;;;8.27;2.17;;;;;;;;;;4974636;28;20089;-77
2022/10/16 12:35:45;;;;;;;12.82;3.45;;;;;;;;;;4977101;28;20043;-77
2022/10/16 12:38:22;;;;;;;6.45;2.53;;;;;;;;;;4968300;28;20079;-77
2022/10/16 12:40:57;;;;;;;6.70;2.45;;;;;;;;;;4977797;28;20053;-82
2022/10/16 12:43:28;;;;;;;6.90;2.60;;;;;;;;;;4991078;28;20088;-76
2022/10/16 12:46:05;;;;;;;8.13;2.47;;;;;;;;;;4970202;28;20047;-76
2022/10/16 12:48:31;;;;;;;8.13;2.22;;;;;;;;;;4964384;28;20047;-76
2022/10/16 12:50:57;;;;;;;9.65;2.58;;;;;;;;;;4969640;28;20047;-76
2022/10/16 12:53:25;;;;;;;9.18;2.70;;;;;;;;;;4970579;28;20042;-77
2022/10/16 12:56:10;;;;;;;10.18;3.00;;;;;;;;;;4971540;28;20043;-77
2022/10/16 12:58:41;;;;;;;9.35;2.85;;;;;;;;;;4983506;28;20051;-78
2022/10/16 13:01:10;;;;;;;8.65;2.53;;;;;;;;;;4984424;28;20456;-77
2022/10/16 13:03:44;;;;;;;12.35;2.75;;;;;;;;;;4970583;28;20057;-77
2022/10/16 13:06:17;;;;;;;9.38;3.05;;;;;;;;;;4972275;29;20043;-77
2022/10/16 13:08:58;;;;;;;9.40;2.55;;;;;;;;;;4988885;28;20063;-78
2022/10/16 13:11:34;;;;;;;10.60;3.03;;;;;;;;;;4975955;28;20055;-77
2022/10/16 13:14:12;;;;;;;7.80;2.22;;;;;;;;;;4972255;28;20406;-77
2022/10/16 13:16:51;;;;;;;6.88;2.70;;;;;;;;;;4979535;28;20054;-76
2022/10/16 13:19:22;;;;;;;8.15;2.42;;;;;;;;;;4970548;28;20043;-77
2022/10/16 13:21:52;;;;;;;9.30;2.20;;;;;;;;;;4972314;28;20154;-77
2022/10/16 13:24:24;;;;;;;5.63;2.00;;;;;;;;;;4983417;28;20062;-76
2022/10/16 13:26:50;;;;;;;9.65;2.70;;;;;;;;;;4970424;28;20086;-75
2022/10/16 13:29:16;;;;;;;7.75;2.30;;;;;;;;;;4967351;28;20043;-75
2022/10/16 13:31:43;;;;;;;11.45;2.47;;;;;;;;;;4968000;28;20106;-75
2022/10/16 13:34:20;;;;;;;9.13;2.80;;;;;;;;;;4969187;28;20088;-75
2022/10/16 13:36:50;;;;;;;9.18;2.40;;;;;;;;;;4964005;28;20066;-75
2022/10/16 13:39:26;;;;;;;11.43;2.33;;;;;;;;;;4975454;28;20069;-75
2022/10/16 13:42:02;;;;;;;10.43;2.70;;;;;;;;;;4974802;28;20082;-75
2022/10/16 13:44:28;;;;;;;;;;;;;;;;;;4961423;28;20420;-75
2022/10/16 13:47:01;;;;;;;12.15;3.17;;;;;;;;;;4974050;28;20423;-75
2022/10/16 13:49:27;;;;;;;11.25;2.70;;;;;;;;;;4976424;28;20047;-75
2022/10/16 13:51:55;;;;;;;7.78;2.72;;;;;;;;;;4975191;28;20050;-75
2022/10/16 13:54:21;;;;;;;12.60;2.88;;;;;;;;;;4967563;28;20055;-75
2022/10/16 13:56:47;;;;;;;14.02;3.88;;;;;;;;;;4958830;28;20177;-75
2022/10/16 13:59:24;;;;;;;9.43;4.32;;;;;;;;;;4970624;28;20075;-75
2022/10/16 14:01:51;;;;;;;11.10;2.75;;;;;;;;;;4963022;28;20039;-75
2022/10/16 14:04:17;;;;;;;13.52;2.80;;;;;;;;;;4965039;28;20145;-75
2022/10/16 14:06:45;;;;;;;10.80;3.13;;;;;;;;;;4977235;28;20053;-75
2022/10/16 14:09:30;;;;;;;9.15;2.67;;;;;;;;;;4975821;28;20141;-75
2022/10/16 14:11:58;;;;;;;8.90;2.67;;;;;;;;;;4962075;28;20054;-76
2022/10/16 14:14:25;;;;;;;9.80;2.70;;;;;;;;;;4975459;28;20103;-75
2022/10/16 14:16:51;;;;;;;9.60;2.67;;;;;;;;;;4963924;28;20085;-75
2022/10/16 14:19:28;;;;;;;5.57;2.33;;;;;;;;;;4963315;28;20054;-76
2022/10/16 14:21:54;;;;;;;13.68;3.13;;;;;;;;;;4962580;28;20059;-75
2022/10/16 14:24:40;;;;;;;12.57;3.13;;;;;;;;;;4967422;28;20479;-74
2022/10/16 14:27:06;;;;;;;;;;;;;;;;;;4977878;28;20136;-76
2022/10/16 14:29:32;;;;;;;12.48;3.63;;;;;;;;;;4968309;28;20803;-75
2022/10/16 14:32:03;;;;;;;13.43;3.42;;;;;;;;;;4963683;28;20047;-76
2022/10/16 14:34:33;;;;;;;7.30;2.75;;;;;;;;;;4969235;28;20451;-76
2022/10/16 14:37:02;;;;;;;8.15;2.40;;;;;;;;;;4970504;28;20039;-75
2022/10/16 14:39:28;;;;;;;10.45;2.75;;;;;;;;;;4981039;28;20054;-75
2022/10/16 14:41:56;;;;;;;10.30;4.35;;;;;;;;;;4969626;28;20097;-76
2022/10/16 14:44:27;;;;;;;8.35;2.50;;;;;;;;;;4965613;28;20391;-75
2022/10/16 14:46:53;;;;;;;9.18;2.63;;;;;;;;;;4983780;28;20043;-75
2022/10/16 14:49:20;;;;;;;11.32;2.78;;;;;;;;;;4961513;28;20047;-76
2022/10/16 14:51:47;;;;;;;9.05;3.10;;;;;;;;;;4981534;28;20047;-76